createdAt,value
2022-10-11T00:03:04.613Z,1005.43
2022-10-11T00:08:08.786Z,1005.61
2022-10-11T00:13:12.923Z,1005.67
2022-10-11T00:18:17.113Z,1005.63
2022-10-11T00:23:21.306Z,1005.77
2022-10-11T00:28:25.508Z,1005.82
2022-10-11T00:33:29.584Z,1005.85
2022-10-11T00:38:33.776Z,1005.77
2022-10-11T00:43:37.914Z,1005.68
2022-10-11T00:48:42.096Z,1005.76
2022-10-11T00:53:46.277Z,1005.76
2022-10-11T00:58:50.414Z,1005.86
2022-10-11T01:03:54.564Z,1005.87
2022-10-11T01:08:58.784Z,1005.91
2022-10-11T01:14:02.896Z,1005.96
2022-10-11T01:19:07.096Z,1005.97
2022-10-11T01:24:11.242Z,1005.92
2022-10-11T01:29:15.381Z,1005.98
2022-10-11T01:34:19.557Z,1006.11
2022-10-11T01:39:23.731Z,1006.08
2022-10-11T01:44:27.880Z,1006.13
2022-10-11T01:49:32.082Z,1006.20
2022-10-11T01:55:04.071Z,1006.17
2022-10-11T01:59:40.379Z,1006.12
2022-10-11T02:04:44.572Z,1006.07
2022-10-11T02:09:48.714Z,1006.10
2022-10-11T02:14:52.891Z,1006.26
2022-10-11T02:19:55.145Z,1006.14
2022-10-11T02:24:59.326Z,1006.21
2022-10-11T02:30:03.502Z,1006.19
2022-10-11T02:40:11.803Z,1006.18
2022-10-11T02:45:15.946Z,1006.32
2022-10-11T02:50:20.137Z,1006.36
2022-10-11T02:55:24.328Z,1006.42
2022-10-11T03:00:28.442Z,1006.45
2022-10-11T03:05:32.604Z,1006.48
2022-10-11T03:10:36.789Z,1006.49
2022-10-11T03:15:40.932Z,1006.59
2022-10-11T03:20:45.109Z,1006.57
2022-10-11T03:25:49.265Z,1006.62
2022-10-11T03:30:53.413Z,1006.74
2022-10-11T03:35:57.731Z,1006.78
2022-10-11T03:41:01.764Z,1006.87
2022-10-11T03:46:06.366Z,1006.93
2022-10-11T03:51:10.105Z,1006.94
2022-10-11T03:56:14.582Z,1006.95
2022-10-11T04:01:18.461Z,1007.07
2022-10-11T04:06:22.569Z,1007.07
2022-10-11T04:11:26.764Z,1007.10
2022-10-11T04:16:30.911Z,1007.08
2022-10-11T04:21:35.131Z,1007.15
2022-10-11T04:26:39.303Z,1007.19
2022-10-11T04:31:43.401Z,1007.25
2022-10-11T04:36:49.853Z,1007.34
2022-10-11T04:41:51.723Z,1007.33
2022-10-11T04:46:55.914Z,1007.37
2022-10-11T04:52:00.080Z,1007.40
2022-10-11T04:57:04.228Z,1007.38
2022-10-11T05:02:08.591Z,1007.45
2022-10-11T05:07:12.570Z,1007.45
2022-10-11T05:12:16.731Z,1007.52
2022-10-11T05:17:20.890Z,1007.57
2022-10-11T05:22:25.027Z,1007.68
2022-10-11T05:27:29.186Z,1007.68
2022-10-11T05:32:33.419Z,1007.73
2022-10-11T05:37:37.565Z,1007.69
2022-10-11T05:42:41.702Z,1007.80
2022-10-11T05:47:45.871Z,1007.88
2022-10-11T05:52:50.037Z,1007.95
2022-10-11T05:57:54.172Z,1007.95
2022-10-11T06:02:58.374Z,1007.95
2022-10-11T06:08:02.520Z,1008.07
2022-10-11T06:13:06.693Z,1008.03
2022-10-11T06:18:10.838Z,1008.11
2022-10-11T06:23:15.019Z,1008.18
2022-10-11T06:28:19.321Z,1008.10
2022-10-11T06:33:23.322Z,1007.97
2022-10-11T06:38:27.488Z,1007.96
2022-10-11T06:43:31.698Z,1008.03
2022-10-11T06:48:35.820Z,1007.92
2022-10-11T06:53:40.013Z,1007.88
2022-10-11T06:58:44.157Z,1007.95
2022-10-11T07:03:48.491Z,1007.94
2022-10-11T07:08:52.468Z,1008.02
2022-10-11T07:13:56.659Z,1008.03
2022-10-11T07:19:01.233Z,1008.03
2022-10-11T07:24:04.979Z,1008.09
2022-10-11T07:29:09.119Z,1008.00
2022-10-11T07:34:13.314Z,1007.83
2022-10-11T07:39:17.484Z,1007.60
2022-10-11T07:44:21.650Z,1007.49
2022-10-11T07:49:23.906Z,1007.30
2022-10-11T07:54:28.081Z,1007.26
2022-10-11T07:59:32.226Z,1007.25
2022-10-11T08:04:36.457Z,1007.20
2022-10-11T08:09:40.563Z,1007.09
2022-10-11T08:14:44.750Z,1004.82
2022-10-11T08:19:48.901Z,1004.69
2022-10-11T08:24:53.065Z,1004.63
2022-10-11T08:29:57.248Z,1004.52
2022-10-11T08:35:01.433Z,1004.35
2022-10-11T08:40:05.588Z,1004.24
2022-10-11T08:45:11.462Z,1004.12
2022-10-11T08:50:13.897Z,1003.94
2022-10-11T08:55:18.046Z,1003.87
2022-10-11T09:00:22.200Z,1003.71
2022-10-11T09:05:26.362Z,1003.62
2022-10-11T09:10:30.565Z,1003.49
2022-10-11T09:15:34.711Z,1003.32
2022-10-11T09:20:38.834Z,1003.19
2022-10-11T09:25:43.051Z,1003.04
2022-10-11T09:30:47.179Z,1003.00
2022-10-11T09:35:51.358Z,1002.76
2022-10-11T09:40:55.504Z,1002.50
2022-10-11T09:45:59.656Z,1002.03
2022-10-11T09:51:03.837Z,1001.83
2022-10-11T09:56:08.673Z,1001.59
2022-10-11T10:01:12.163Z,1001.86
2022-10-11T10:06:16.337Z,1003.58
2022-10-11T10:11:20.481Z,1007.16
2022-10-11T10:16:24.633Z,1011.05
2022-10-11T10:21:28.821Z,1013.42
2022-10-11T10:32:01.598Z,1014.52
2022-10-11T10:41:45.413Z,1014.90
2022-10-11T10:46:49.641Z,1014.89
2022-10-11T10:51:53.787Z,1014.92
2022-10-11T10:56:57.939Z,1014.81
2022-10-11T11:02:15.894Z,1014.88
2022-10-11T11:07:06.255Z,1014.80
2022-10-11T11:12:10.402Z,1014.81
2022-10-11T11:17:14.547Z,1014.76
2022-10-11T11:22:18.769Z,1014.59
2022-10-11T11:27:22.890Z,1014.66
2022-10-11T11:32:27.033Z,1014.81
2022-10-11T11:37:31.238Z,1014.74
2022-10-11T11:42:35.352Z,1014.21
2022-10-11T11:47:39.490Z,1014.81
2022-10-11T11:52:43.682Z,1014.87
2022-10-11T11:57:47.834Z,1014.72
2022-10-11T12:02:51.985Z,1014.74
2022-10-11T12:07:56.170Z,1014.75
2022-10-11T12:13:00.301Z,1015.34
2022-10-11T12:18:04.493Z,1015.24
2022-10-11T12:23:08.639Z,1015.24
2022-10-11T12:28:12.878Z,1015.14
2022-10-11T12:33:16.951Z,1014.98
2022-10-11T12:38:21.164Z,1015.00
2022-10-11T12:43:25.304Z,1015.05
2022-10-11T12:48:34.878Z,1015.07
2022-10-11T12:53:33.613Z,1014.70
2022-10-11T12:58:37.793Z,1014.76
2022-10-11T13:03:41.985Z,1015.09
2022-10-11T13:08:46.078Z,1015.22
2022-10-11T13:13:50.249Z,1015.32
2022-10-11T13:18:52.482Z,1015.49
2022-10-11T13:23:56.662Z,1015.64
2022-10-11T13:29:00.847Z,1015.86
2022-10-11T13:34:04.980Z,1015.96
2022-10-11T13:39:09.130Z,1016.01
2022-10-11T13:44:13.282Z,1015.98
2022-10-11T13:49:15.614Z,1015.71
2022-10-11T13:54:19.719Z,1015.72
2022-10-11T13:59:23.934Z,1015.85
2022-10-11T14:04:29.978Z,1015.98
2022-10-11T14:09:32.190Z,1015.85
2022-10-11T14:14:36.370Z,1015.77
2022-10-11T14:19:40.549Z,1015.86
2022-10-11T14:24:44.709Z,1015.96
2022-10-11T14:30:12.640Z,1015.93
2022-10-11T14:34:53.046Z,1015.99
2022-10-11T14:39:57.193Z,1016.01
2022-10-11T14:45:01.348Z,1015.92
2022-10-11T14:50:05.491Z,1016.02
2022-10-11T14:55:09.617Z,1015.91
2022-10-11T15:00:13.830Z,1016.03
2022-10-11T15:05:17.989Z,1015.95
2022-10-11T15:10:22.122Z,1015.98
2022-10-11T15:15:26.299Z,1015.74
2022-10-11T15:20:30.456Z,1015.77
2022-10-11T15:25:34.599Z,1015.75
2022-10-11T15:30:41.661Z,1015.78
2022-10-11T15:35:42.915Z,1015.78
2022-10-11T15:40:47.066Z,1015.78
2022-10-11T15:45:51.274Z,1015.78
2022-10-11T15:50:55.420Z,1015.73
2022-10-11T15:55:59.596Z,1015.73
2022-10-11T16:01:04.155Z,1015.82
2022-10-11T16:06:08.376Z,1015.80
2022-10-11T16:11:12.072Z,1015.58
2022-10-11T16:16:16.241Z,1015.54
2022-10-11T16:21:20.383Z,1015.50
2022-10-11T16:26:24.522Z,1015.55
2022-10-11T16:31:28.739Z,1015.44
2022-10-11T16:36:32.861Z,1014.97
2022-10-11T16:41:37.032Z,1014.88
2022-10-11T16:46:41.165Z,1014.69
2022-10-11T16:51:45.359Z,1014.46
2022-10-11T16:56:49.494Z,1014.35
2022-10-11T17:01:53.620Z,1014.17
2022-10-11T17:06:57.801Z,1014.04
2022-10-11T17:12:01.998Z,1013.85
2022-10-11T17:17:06.124Z,1013.73
2022-10-11T17:22:10.294Z,1013.66
2022-10-11T17:27:14.472Z,1013.52
2022-10-11T17:32:18.644Z,1013.42
2022-10-11T17:37:22.824Z,1013.34
2022-10-11T17:42:26.964Z,1013.20
2022-10-11T17:47:31.109Z,1013.08
2022-10-11T17:52:35.260Z,1012.92
2022-10-11T17:57:39.578Z,1012.75
2022-10-11T18:02:43.603Z,1012.61
2022-10-11T18:07:47.741Z,1012.46
2022-10-11T18:12:51.922Z,1012.31
2022-10-11T18:17:56.104Z,1011.94
2022-10-11T18:23:00.237Z,1011.55
2022-10-11T18:28:04.402Z,1011.19
2022-10-11T18:33:08.581Z,1010.90
2022-10-11T18:38:12.780Z,1010.33
2022-10-11T18:43:16.929Z,1008.80
2022-10-11T18:48:21.058Z,1008.33
2022-10-11T18:53:25.249Z,1007.95
2022-10-11T18:58:29.376Z,1007.78
2022-10-11T19:03:35.318Z,1007.56
2022-10-11T19:08:37.734Z,1007.40
2022-10-11T19:13:41.877Z,1007.36
2022-10-11T19:18:44.536Z,1007.28
2022-10-11T19:23:48.430Z,1007.14
2022-10-11T19:28:52.533Z,1007.05
2022-10-11T19:33:56.666Z,1006.98
2022-10-11T19:39:00.833Z,1006.89
2022-10-11T19:44:04.922Z,1006.72
2022-10-11T19:49:09.088Z,1006.60
2022-10-11T19:54:14.425Z,1006.47
2022-10-11T19:59:17.442Z,1006.45
2022-10-11T20:04:46.897Z,1006.44
2022-10-11T20:09:30.263Z,1006.46
2022-10-11T20:14:29.921Z,1006.35
2022-10-11T20:19:34.098Z,1006.35
2022-10-11T20:24:38.246Z,1006.25
2022-10-11T20:29:42.442Z,1006.19
2022-10-11T20:34:46.806Z,1006.10
2022-10-11T20:39:50.774Z,1006.01
2022-10-11T20:44:54.904Z,1005.99
2022-10-11T20:49:59.077Z,1005.94
2022-10-11T20:55:03.467Z,1005.93
2022-10-11T21:00:07.400Z,1005.75
2022-10-11T21:05:11.569Z,1005.75
2022-10-11T21:10:15.720Z,1005.63
2022-10-11T21:15:19.896Z,1005.58
2022-10-11T21:20:24.051Z,1005.43
2022-10-11T21:25:28.202Z,1005.39
2022-10-11T21:30:32.394Z,1005.32
2022-10-11T21:35:36.519Z,1005.20
2022-10-11T21:40:40.713Z,1005.08
2022-10-11T21:45:44.846Z,1005.13
2022-10-11T21:50:49.059Z,1005.04
2022-10-11T21:55:55.228Z,1005.02
2022-10-11T22:00:57.374Z,1004.88
2022-10-11T22:06:01.550Z,1004.84
2022-10-11T22:11:05.688Z,1004.80
2022-10-11T22:16:09.817Z,1004.72
2022-10-11T22:21:13.973Z,1004.74
2022-10-11T22:26:18.167Z,1004.66
2022-10-11T22:31:22.331Z,1004.66
2022-10-11T22:36:26.499Z,1004.57
2022-10-11T22:41:30.651Z,1004.52
2022-10-11T22:46:34.851Z,1004.45
2022-10-11T22:51:38.959Z,1004.36
2022-10-11T22:56:43.148Z,1004.37
2022-10-11T23:01:47.300Z,1004.28
2022-10-11T23:06:51.494Z,1004.19
2022-10-11T23:11:55.651Z,1004.16
2022-10-11T23:16:59.806Z,1004.19
2022-10-11T23:22:03.978Z,1004.31
2022-10-11T23:27:08.118Z,1004.24
2022-10-11T23:32:12.309Z,1004.30
2022-10-11T23:37:16.470Z,1004.17
2022-10-11T23:42:20.690Z,1004.22
2022-10-11T23:47:24.801Z,1004.19
2022-10-11T23:52:28.958Z,1004.25
2022-10-11T23:57:33.092Z,1004.17
